Have a Safe July 4th! 

Flight Track Log - Related Links

Times and Time Zones

All times are in EST time to prevent confusion due to time zone crossing. See the AFL150 flight status page for this flight to view local times or setup timezone preferences in your user account.

Time Position Orientation Groundspeed Altitude Reporting Facility
EST Latitude Longitude Course Direction KTS MPH feet Rate Location/Type
Tue 04:40:00 AM 56.1478 36.9238 307° West  Level Estimated
Tue 04:41:00 AM 56.2154 36.7587 306° West  Level Estimated
Tue 04:42:00 AM 56.2828 36.5930 306° West  Level Estimated
Tue 04:43:00 AM 56.3499 36.4268 306° West  Level Estimated
Tue 04:44:00 AM 56.4169 36.2599 306° West  Level Estimated
Tue 04:45:00 AM 56.4836 36.0925 306° West  Level Estimated
Tue 04:46:00 AM 56.5501 35.9245 306° West  Level Estimated
Tue 04:47:00 AM 56.6164 35.7559 306° West  Level Estimated
Tue 04:48:00 AM 56.6824 35.5867 305° West  Level Estimated
Tue 04:49:00 AM 56.7482 35.4170 305° West  Level Estimated
Tue 04:50:00 AM 56.8138 35.2466 305° West  Level Estimated
Tue 04:51:00 AM 56.8792 35.0756 305° West  Level Estimated
Tue 04:52:00 AM 56.9443 34.9040 305° West  Level Estimated
Tue 04:53:00 AM 57.0091 34.7319 305° West  Level Estimated
Tue 04:54:00 AM 57.0738 34.5591 305° West  Level Estimated
Tue 04:55:00 AM 57.1382 34.3857 304° West  Level Estimated
Tue 04:56:00 AM 57.2023 34.2118 304° West  Level Estimated
Tue 04:57:00 AM 57.2663 34.0372 304° West  Level Estimated
Tue 04:58:00 AM 57.3299 33.8620 304° West  Level Estimated
Tue 04:59:00 AM 57.3934 33.6862 304° West  Level Estimated
Tue 05:00:00 AM 57.4566 33.5098 304° West  Level Estimated
Tue 05:01:00 AM 57.5195 33.3328 304° West  Level Estimated
Tue 05:02:00 AM 57.5822 33.1552 303° West  Level Estimated
Tue 05:03:00 AM 57.6446 32.9770 303° West  Level Estimated
Tue 05:04:00 AM 57.7068 32.7981 303° West  Level Estimated
Tue 05:05:00 AM 57.7679 32.6210 303° West  Level Estimated
Tue 05:06:00 AM 57.8288 32.4433 303° West  Level Estimated
Tue 05:07:00 AM 57.8895 32.2650 303° West  Level Estimated
Tue 05:08:00 AM 57.9498 32.0861 303° West  Level Estimated
Tue 05:09:00 AM 58.0100 31.9066 302° West  Level Estimated
Tue 05:10:00 AM 58.0698 31.7265 302° West  Level Estimated
Tue 05:11:00 AM 58.1295 31.5457 302° West  Level Estimated
Tue 05:12:00 AM 58.1888 31.3644 302° West  Level Estimated
Tue 05:13:00 AM 58.2479 31.1825 302° West  Level Estimated
Tue 05:14:00 AM 58.3068 31.0000 302° West  Level Estimated
Tue 05:15:00 AM 58.3653 30.8168 301° West  Level Estimated
Tue 05:16:00 AM 58.4236 30.6331 301° West  Level Estimated
Tue 05:17:00 AM 58.4817 30.4487 301° West  Level Estimated
Tue 05:18:00 AM 58.5395 30.2637 301° West  Level Estimated
Tue 05:19:00 AM 58.5970 30.0782 301° West  Level Estimated
Tue 05:20:00 AM 58.6543 29.8920 301° West  Level Estimated
Tue 05:21:00 AM 58.7113 29.7052 300° West  Level Estimated
Tue 05:22:00 AM 58.7680 29.5178 300° West  Level Estimated
Tue 05:23:00 AM 58.8244 29.3298 300° West  Level Estimated
Tue 05:24:00 AM 58.8806 29.1411 300° West  Level Estimated
Tue 05:25:00 AM 58.9365 28.9519 300° West  Level Estimated
Tue 05:26:00 AM 58.9921 28.7620 300° West  Level Estimated
Tue 05:27:00 AM 59.0475 28.5716 300° West  Level Estimated
Tue 05:28:00 AM 59.1025 28.3805 299° West  Level Estimated
Tue 05:29:00 AM 59.1573 28.1888 299° West  Level Estimated
Tue 05:30:00 AM 59.2118 27.9965 299° West  Level Estimated
Tue 05:31:00 AM 59.2660 27.8036 299° West  Level Estimated
Tue 05:32:00 AM 59.3199 27.6100 299° West  Level Estimated
Tue 05:33:00 AM 59.3736 27.4159 299° West  Level Estimated
Tue 05:34:00 AM 59.4269 27.2211 298° West  Level Estimated
Tue 05:35:00 AM 59.4799 27.0258 298° West  Level Estimated
Tue 05:36:00 AM 59.5327 26.8298 298° West  Level Estimated
Tue 05:37:00 AM 59.5852 26.6332 298° West  Level Estimated
Tue 05:38:00 AM 59.6373 26.4360 298° West  Level Estimated
Tue 05:39:00 AM 59.6892 26.2381 298° West  Level Estimated
Tue 05:40:00 AM 59.7408 26.0397 297° West  Level Estimated
Tue 05:41:00 AM 59.7921 25.8407 297° West  Level Estimated
Tue 05:42:00 AM 59.8431 25.6410 297° West  Level Estimated
Tue 05:43:00 AM 59.8937 25.4407 297° West  Level Estimated
Tue 05:44:00 AM 59.9441 25.2398 297° West  Level Estimated
Tue 05:45:00 AM 59.9942 25.0383 296° West  Level Estimated
Tue 05:46:00 AM 60.0439 24.8363 296° West  Level Estimated
Tue 05:47:00 AM 60.0934 24.6336 296° West  Level Estimated
Tue 05:48:00 AM 60.1425 24.4302 296° West  Level Estimated
Tue 05:49:00 AM 60.1913 24.2263 296° West  Level Estimated
Tue 05:50:00 AM 60.2398 24.0218 296° West  Level Estimated
Tue 05:51:00 AM 60.2880 23.8167 295° West  Level Estimated
Tue 05:52:00 AM 60.3359 23.6109 295° West  Level Estimated
Tue 05:53:00 AM 60.3834 23.4046 295° West  Level Estimated
Tue 05:54:00 AM 60.4307 23.1977 295° West  Level Estimated
Tue 05:55:00 AM 60.4776 22.9901 295° West  Level Estimated
Tue 05:56:00 AM 60.5242 22.7820 295° West  Level Estimated
Tue 05:57:00 AM 60.5704 22.5733 294° West  Level Estimated
Tue 05:58:00 AM 60.6164 22.3639 294° West  Level Estimated
Tue 05:59:00 AM 60.6620 22.1540 294° West  Level Estimated
Tue 06:00:00 AM 60.7073 21.9435 294° West  Level Estimated
Tue 06:01:00 AM 60.7522 21.7324 294° West  Level Estimated
Tue 06:02:00 AM 60.7968 21.5207 293° West  Level Estimated
Tue 06:03:00 AM 60.8411 21.3084 293° West  Level Estimated
Tue 06:04:00 AM 60.8851 21.0955 293° West  Level Estimated
Tue 06:05:00 AM 60.9287 20.8821 293° West  Level Estimated
Tue 06:06:00 AM 60.9720 20.6680 293° West  Level Estimated
Tue 06:07:00 AM 61.0149 20.4534 293° West  Level Estimated
Tue 06:08:00 AM 61.0575 20.2382 292° West  Level Estimated
Tue 06:09:00 AM 61.0997 20.0224 292° West  Level Estimated
Tue 06:10:00 AM 61.1416 19.8061 292° West  Level Estimated
Tue 06:11:00 AM 61.1832 19.5891 292° West  Level Estimated
Tue 06:12:00 AM 61.2244 19.3717 292° West  Level Estimated
Tue 06:13:00 AM 61.2653 19.1536 291° West  Level Estimated
Tue 06:14:00 AM 61.3058 18.9349 291° West  Level Estimated
Tue 06:15:00 AM 61.3459 18.7158 291° West  Level Estimated
Tue 06:16:00 AM 61.3857 18.4960 291° West  Level Estimated
Tue 06:17:00 AM 61.4252 18.2757 291° West  Level Estimated
Tue 06:18:00 AM 61.4643 18.0548 290° West  Level Estimated
Tue 06:19:00 AM 61.5030 17.8334 290° West  Level Estimated
Tue 06:20:00 AM 61.5414 17.6114 290° West  Level Estimated
Tue 06:21:00 AM 61.5794 17.3889 290° West  Level Estimated
Tue 06:22:00 AM 61.6170 17.1659 290° West  Level Estimated
Tue 06:23:00 AM 61.6543 16.9423 289° West  Level Estimated
Tue 06:24:00 AM 61.6912 16.7181 289° West  Level Estimated
Tue 06:25:00 AM 61.7278 16.4935 289° West  Level Estimated
Tue 06:26:00 AM 61.7640 16.2682 289° West  Level Estimated
Tue 06:27:00 AM 61.7998 16.0425 289° West  Level Estimated
Tue 06:28:00 AM 61.8353 15.8163 288° West  Level Estimated
Tue 06:29:00 AM 61.8703 15.5895 288° West  Level Estimated
Tue 06:30:00 AM 61.9050 15.3622 288° West  Level Estimated
Tue 06:31:00 AM 61.9393 15.1344 288° West  Level Estimated
Tue 06:32:00 AM 61.9733 14.9061 288° West  Level Estimated
Tue 06:33:00 AM 62.0069 14.6772 287° West  Level Estimated
Tue 06:34:00 AM 62.0401 14.4479 287° West  Level Estimated
Tue 06:35:00 AM 62.0729 14.2181 287° West  Level Estimated
Tue 06:36:00 AM 62.1053 13.9878 287° West  Level Estimated
Tue 06:37:00 AM 62.1373 13.7570 287° West  Level Estimated
Tue 06:38:00 AM 62.1690 13.5257 286° West  Level Estimated
Tue 06:39:00 AM 62.2002 13.2939 286° West  Level Estimated
Tue 06:40:00 AM 62.2311 13.0617 286° West  Level Estimated
Tue 06:41:00 AM 62.2616 12.8289 286° West  Level Estimated
Tue 06:42:00 AM 62.2917 12.5958 286° West  Level Estimated
Tue 06:43:00 AM 62.3214 12.3621 285° West  Level Estimated
Tue 06:44:00 AM 62.3507 12.1280 285° West  Level Estimated
Tue 06:45:00 AM 62.3797 11.8934 285° West  Level Estimated
Tue 06:46:00 AM 62.4082 11.6584 285° West  Level Estimated
Tue 06:47:00 AM 62.4363 11.4229 285° West  Level Estimated
Tue 06:48:00 AM 62.4641 11.1870 284° West  Level Estimated
Tue 06:49:00 AM 62.4914 10.9507 284° West  Level Estimated
Tue 06:50:00 AM 62.5183 10.7139 284° West  Level Estimated
Tue 06:51:00 AM 62.5449 10.4767 284° West  Level Estimated
Tue 06:52:00 AM 62.5710 10.2391 284° West  Level Estimated
Tue 06:53:00 AM 62.5967 10.0010 283° West  Level Estimated
Tue 06:54:00 AM 62.6221 9.7626 283° West  Level Estimated
Tue 06:55:00 AM 62.6470 9.5238 283° West  Level Estimated
Tue 06:56:00 AM 62.6715 9.2845 283° West  Level Estimated
Tue 06:57:00 AM 62.6956 9.0449 282° West  Level Estimated
Tue 06:58:00 AM 62.7193 8.8049 282° West  Level Estimated
Tue 06:59:00 AM 62.7425 8.5645 282° West  Level Estimated
Tue 07:00:00 AM 62.7654 8.3237 282° West  Level Estimated
Tue 07:01:00 AM 62.7879 8.0825 282° West  Level Estimated
Tue 07:02:00 AM 62.8099 7.8410 281° West  Level Estimated
Tue 07:03:00 AM 62.8316 7.5991 281° West  Level Estimated
Tue 07:04:00 AM 62.8528 7.3569 281° West  Level Estimated
Tue 07:05:00 AM 62.8736 7.1143 281° West  Level Estimated
Tue 07:06:00 AM 62.8940 6.8714 281° West  Level Estimated
Tue 07:07:00 AM 62.9139 6.6281 280° West  Level Estimated
Tue 07:08:00 AM 62.9335 6.3846 280° West  Level Estimated
Tue 07:09:00 AM 62.9526 6.1407 280° West  Level Estimated
Tue 07:10:00 AM 62.9713 5.8964 280° West  Level Estimated
Tue 07:11:00 AM 62.9896 5.6519 279° West  Level Estimated
Tue 07:12:00 AM 63.0074 5.4071 279° West  Level Estimated
Tue 07:13:00 AM 63.0249 5.1620 279° West  Level Estimated
Tue 07:14:00 AM 63.0419 4.9166 279° West  Level Estimated
Tue 07:15:00 AM 63.0585 4.6708 279° West  Level Estimated
Tue 07:16:00 AM 63.0746 4.4249 278° West  Level Estimated
Tue 07:17:00 AM 63.0904 4.1786 278° West  Level Estimated
Tue 07:18:00 AM 63.1057 3.9321 278° West  Level Estimated
Tue 07:19:00 AM 63.1206 3.6854 278° West  Level Estimated
Tue 07:20:00 AM 63.1350 3.4384 277° West  Level Estimated
Tue 07:21:00 AM 63.1490 3.1911 277° West  Level Estimated
Tue 07:22:00 AM 63.1626 2.9436 277° West  Level Estimated
Tue 07:23:00 AM 63.1758 2.6959 277° West  Level Estimated
Tue 07:24:00 AM 63.1885 2.4480 277° West  Level Estimated
Tue 07:25:00 AM 63.2008 2.1998 276° West  Level Estimated
Tue 07:26:00 AM 63.2127 1.9514 276° West  Level Estimated
Tue 07:27:00 AM 63.2241 1.7029 276° West  Level Estimated
Tue 07:28:00 AM 63.2351 1.4541 276° West  Level Estimated
Tue 07:29:00 AM 63.2456 1.2052 275° West  Level Estimated
Tue 07:30:00 AM 63.2558 0.9561 275° West  Level Estimated
Tue 07:31:00 AM 63.2654 0.7068 275° West  Level Estimated
Tue 07:32:00 AM 63.2747 0.4573 275° West  Level Estimated
Tue 07:33:00 AM 63.2835 0.2077 275° West  Level Estimated
Tue 07:34:00 AM 63.2919 -0.0420 274° West  Level Estimated
Tue 07:35:00 AM 63.2998 -0.2919 274° West  Level Estimated
Tue 07:36:00 AM 63.3073 -0.5420 274° West  Level Estimated
Tue 07:37:00 AM 63.3144 -0.7921 274° West  Level Estimated
Tue 07:38:00 AM 63.3210 -1.0424 273° West  Level Estimated
Tue 07:39:00 AM 63.3272 -1.2928 273° West  Level Estimated
Tue 07:40:00 AM 63.3330 -1.5433 273° West  Level Estimated
Tue 07:41:00 AM 63.3383 -1.7939 273° West  Level Estimated
Tue 07:42:00 AM 63.3431 -2.0445 273° West  Level Estimated
Tue 07:43:00 AM 63.3476 -2.2953 272° West  Level Estimated
Tue 07:44:00 AM 63.3516 -2.5461 272° West  Level Estimated
Tue 07:45:00 AM 63.3551 -2.7970 272° West  Level Estimated
Tue 07:46:00 AM 63.3582 -3.0480 272° West  Level Estimated
Tue 07:47:00 AM 63.3609 -3.2990 271° West  Level Estimated
Tue 07:48:00 AM 63.3631 -3.5501 271° West  Level Estimated
Tue 07:49:00 AM 63.3649 -3.8012 271° West  Level Estimated
Tue 07:50:00 AM 63.3663 -4.0523 271° West  Level Estimated
Tue 07:51:00 AM 63.3672 -4.3034 271° West  Level Estimated
Tue 07:52:00 AM 63.3676 -4.5545 270° West  Level Estimated
Tue 07:53:00 AM 63.3676 -4.8057 270° West  Level Estimated
Tue 07:54:00 AM 63.3672 -5.0568 270° West  Level Estimated
Tue 07:55:00 AM 63.3664 -5.3080 270° West  Level Estimated
Tue 07:56:00 AM 63.3651 -5.5591 269° West  Level Estimated
Tue 07:57:00 AM 63.3633 -5.8102 269° West  Level Estimated
Tue 07:58:00 AM 63.3611 -6.0612 269° West  Level Estimated
Tue 07:59:00 AM 63.3585 -6.3122 269° West  Level Estimated
Tue 08:00:00 AM 63.3555 -6.5632 269° West  Level Estimated
Tue 08:01:00 AM 63.3520 -6.8141 268° West  Level Estimated
Tue 08:02:00 AM 63.3480 -7.0649 268° West  Level Estimated
Tue 08:03:00 AM 63.3436 -7.3157 268° West  Level Estimated
Tue 08:04:00 AM 63.3388 -7.5664 268° West  Level Estimated
Tue 08:05:00 AM 63.3335 -7.8170 267° West  Level Estimated
Tue 08:06:00 AM 63.3278 -8.0675 267° West  Level Estimated
Tue 08:07:00 AM 63.3217 -8.3179 267° West  Level Estimated
Tue 08:08:00 AM 63.3151 -8.5682 267° West  Level Estimated
Tue 08:09:00 AM 63.3081 -8.8184 267° West  Level Estimated
Tue 08:10:00 AM 63.3006 -9.0684 266° West  Level Estimated
Tue 08:11:00 AM 63.2927 -9.3183 266° West  Level Estimated
Tue 08:12:00 AM 63.2844 -9.5681 266° West  Level Estimated
Tue 08:13:00 AM 63.2756 -9.8177 266° West  Level Estimated
Tue 08:14:00 AM 63.2664 -10.0672 265° West  Level Estimated
Tue 08:15:00 AM 63.2568 -10.3165 265° West  Level Estimated
Tue 08:16:00 AM 63.2467 -10.5656 265° West  Level Estimated
Tue 08:17:00 AM 63.2362 -10.8146 265° West  Level Estimated
Tue 08:18:00 AM 63.2252 -11.0634 265° West  Level Estimated
Tue 08:19:00 AM 63.2138 -11.3119 264° West  Level Estimated
Tue 08:20:00 AM 63.2020 -11.5603 264° West  Level Estimated
Tue 08:21:00 AM 63.1898 -11.8085 264° West  Level Estimated
Tue 08:22:00 AM 63.1771 -12.0565 264° West  Level Estimated
Tue 08:23:00 AM 63.1640 -12.3042 263° West  Level Estimated
Tue 08:24:00 AM 63.1504 -12.5517 263° West  Level Estimated
Tue 08:25:00 AM 63.1364 -12.7990 263° West  Level Estimated
Tue 08:26:00 AM 63.1220 -13.0460 263° West  Level Estimated
Tue 08:27:00 AM 63.1072 -13.2928 263° West  Level Estimated
Tue 08:28:00 AM 63.0919 -13.5393 262° West  Level Estimated
Tue 08:29:00 AM 63.0762 -13.7856 262° West  Level Estimated
Tue 08:30:00 AM 63.0601 -14.0316 262° West  Level Estimated
Tue 08:31:00 AM 63.0436 -14.2774 262° West  Level Estimated
Tue 08:32:00 AM 63.0266 -14.5228 261° West  Level Estimated
Tue 08:33:00 AM 63.0092 -14.7679 261° West  Level Estimated
Tue 08:34:00 AM 62.9914 -15.0128 261° West  Level Estimated
Tue 08:35:00 AM 62.9732 -15.2574 261° West  Level Estimated
Tue 08:36:00 AM 62.9545 -15.5016 261° West  Level Estimated
Tue 08:37:00 AM 62.9354 -15.7455 260° West  Level Estimated
Tue 08:38:00 AM 62.9159 -15.9892 260° West  Level Estimated
Tue 08:39:00 AM 62.8960 -16.2324 260° West  Level Estimated
Tue 08:40:00 AM 62.8757 -16.4754 260° West  Level Estimated
Tue 08:41:00 AM 62.8549 -16.7180 259° West  Level Estimated
Tue 08:42:00 AM 62.8337 -16.9603 259° West  Level Estimated
Tue 08:43:00 AM 62.8121 -17.2022 259° West  Level Estimated
Tue 08:44:00 AM 62.7901 -17.4437 259° West  Level Estimated
Tue 08:45:00 AM 62.7677 -17.6849 259° West  Level Estimated
Tue 08:46:00 AM 62.7449 -17.9257 258° West  Level Estimated
Tue 08:47:00 AM 62.7216 -18.1662 258° West  Level Estimated
Tue 08:48:00 AM 62.6980 -18.4062 258° West  Level Estimated
Tue 08:49:00 AM 62.6739 -18.6459 258° West  Level Estimated
Tue 08:50:00 AM 62.6495 -18.8852 258° West  Level Estimated
Tue 08:51:00 AM 62.6246 -19.1241 257° West  Level Estimated
Tue 08:52:00 AM 62.5993 -19.3626 257° West  Level Estimated
Tue 08:53:00 AM 62.5736 -19.6006 257° West  Level Estimated
Tue 08:54:00 AM 62.5475 -19.8383 257° West  Level Estimated
Tue 08:55:00 AM 62.5210 -20.0755 256° West  Level Estimated
Tue 08:56:00 AM 62.4941 -20.3123 256° West  Level Estimated
Tue 08:57:00 AM 62.4668 -20.5487 256° West  Level Estimated
Tue 08:58:00 AM 62.4391 -20.7847 256° West  Level Estimated
Tue 08:59:00 AM 62.4110 -21.0202 256° West  Level Estimated
Tue 09:00:00 AM 62.3825 -21.2552 255° West  Level Estimated
Tue 09:01:00 AM 62.3537 -21.4899 255° West  Level Estimated
Tue 09:02:00 AM 62.3244 -21.7240 255° West  Level Estimated
Tue 09:03:00 AM 62.2947 -21.9577 255° West  Level Estimated
Tue 09:04:00 AM 62.2646 -22.1910 255° West  Level Estimated
Tue 09:05:00 AM 62.2342 -22.4237 254° West  Level Estimated
Tue 09:06:00 AM 62.2034 -22.6560 254° West  Level Estimated
Tue 09:07:00 AM 62.1721 -22.8878 254° West  Level Estimated
Tue 09:08:00 AM 62.1405 -23.1192 254° West  Level Estimated
Tue 09:09:00 AM 62.1085 -23.3500 254° West  Level Estimated
Tue 09:10:00 AM 62.0761 -23.5804 253° West  Level Estimated
Tue 09:11:00 AM 62.0434 -23.8103 253° West  Level Estimated
Tue 09:12:00 AM 62.0102 -24.0396 253° West  Level Estimated
Tue 09:13:00 AM 61.9767 -24.2685 253° West  Level Estimated
Tue 09:14:00 AM 61.9428 -24.4969 253° West  Level Estimated
Tue 09:15:00 AM 61.9085 -24.7248 252° West  Level Estimated
Tue 09:16:00 AM 61.8738 -24.9521 252° West  Level Estimated
Tue 09:17:00 AM 61.8388 -25.1789 252° West  Level Estimated
Tue 09:18:00 AM 61.8034 -25.4052 252° West  Level Estimated
Tue 09:19:00 AM 61.7676 -25.6310 252° West  Level Estimated
Tue 09:20:00 AM 61.7314 -25.8563 251° West  Level Estimated
Tue 09:21:00 AM 61.6949 -26.0810 251° West  Level Estimated
Tue 09:22:00 AM 61.6581 -26.3052 251° West  Level Estimated
Tue 09:23:00 AM 61.6208 -26.5288 251° West  Level Estimated
Tue 09:24:00 AM 61.5832 -26.7519 251° West  Level Estimated
Tue 09:25:00 AM 61.5452 -26.9745 250° West  Level Estimated
Tue 09:26:00 AM 61.5069 -27.1965 250° West  Level Estimated
Tue 09:27:00 AM 61.4682 -27.4180 250° West  Level Estimated
Tue 09:28:00 AM 61.4291 -27.6389 250° West  Level Estimated
Tue 09:29:00 AM 61.3897 -27.8593 250° West  Level Estimated
Tue 09:30:00 AM 61.3499 -28.0791 249° West  Level Estimated
Tue 09:31:00 AM 61.3098 -28.2984 249° West  Level Estimated
Tue 09:32:00 AM 61.2693 -28.5170 249° West  Level Estimated
Tue 09:33:00 AM 61.2285 -28.7352 249° West  Level Estimated
Tue 09:34:00 AM 61.1873 -28.9527 249° West  Level Estimated
Tue 09:35:00 AM 61.1458 -29.1697 248° West  Level Estimated
Tue 09:36:00 AM 61.1039 -29.3861 248° West  Level Estimated
Tue 09:37:00 AM 61.0617 -29.6019 248° West  Level Estimated
Tue 09:38:00 AM 61.0192 -29.8172 248° West  Level Estimated
Tue 09:39:00 AM 60.9763 -30.0319 248° West  Level Estimated
Tue 09:40:00 AM 60.9330 -30.2460 248° West  Level Estimated
Tue 09:41:00 AM 60.8895 -30.4595 247° West  Level Estimated
Tue 09:42:00 AM 60.8443 -30.6784 247° West  Level Estimated
Tue 09:43:00 AM 60.7988 -30.8967 247° West  Level Estimated
Tue 09:44:00 AM 60.7529 -31.1144 247° West  Level Estimated
Tue 09:45:00 AM 60.7067 -31.3315 247° West  Level Estimated
Tue 09:46:00 AM 60.6601 -31.5480 246° West  Level Estimated
Tue 09:47:00 AM 60.6132 -31.7638 246° West  Level Estimated
Tue 09:48:00 AM 60.5659 -31.9790 246° West  Level Estimated
Tue 09:49:00 AM 60.5183 -32.1935 246° West  Level Estimated
Tue 09:50:00 AM 60.4704 -32.4074 246° West  Level Estimated
Tue 09:51:00 AM 60.4221 -32.6207 245° Southwest  Level Estimated
Tue 09:52:00 AM 60.3734 -32.8334 245° Southwest  Level Estimated
Tue 09:53:00 AM 60.3245 -33.0454 245° Southwest  Level Estimated
Tue 09:54:00 AM 60.2752 -33.2568 245° Southwest  Level Estimated
Tue 09:55:00 AM 60.2255 -33.4675 245° Southwest  Level Estimated
Tue 09:56:00 AM 60.1755 -33.6776 245° Southwest  Level Estimated
Tue 09:57:00 AM 60.1252 -33.8871 244° Southwest  Level Estimated
Tue 09:58:00 AM 60.0746 -34.0959 244° Southwest  Level Estimated
Tue 09:59:00 AM 60.0236 -34.3041 244° Southwest  Level Estimated
Tue 10:00:00 AM 59.9723 -34.5116 244° Southwest  Level Estimated
Tue 10:01:00 AM 59.9207 -34.7185 244° Southwest  Level Estimated
Tue 10:02:00 AM 59.8688 -34.9248 243° Southwest  Level Estimated
Tue 10:03:00 AM 59.8165 -35.1303 243° Southwest  Level Estimated
Tue 10:04:00 AM 59.7639 -35.3353 243° Southwest  Level Estimated
Tue 10:05:00 AM 59.7110 -35.5396 243° Southwest  Level Estimated
Tue 10:06:00 AM 59.6578 -35.7433 243° Southwest  Level Estimated
Tue 10:07:00 AM 59.6043 -35.9463 243° Southwest  Level Estimated
Tue 10:08:00 AM 59.5504 -36.1487 242° Southwest  Level Estimated
Tue 10:09:00 AM 59.4963 -36.3504 242° Southwest  Level Estimated
Tue 10:10:00 AM 59.4418 -36.5515 242° Southwest  Level Estimated
Tue 10:11:00 AM 59.3871 -36.7519 242° Southwest  Level Estimated
Tue 10:12:00 AM 59.3320 -36.9517 242° Southwest  Level Estimated
Tue 10:13:00 AM 59.2766 -37.1508 242° Southwest  Level Estimated
Tue 10:14:00 AM 59.2209 -37.3493 241° Southwest  Level Estimated
Tue 10:15:00 AM 59.1649 -37.5471 241° Southwest  Level Estimated
Tue 10:16:00 AM 59.1086 -37.7443 241° Southwest  Level Estimated
Tue 10:17:00 AM 59.0521 -37.9408 241° Southwest  Level Estimated
Tue 10:18:00 AM 58.9952 -38.1367 241° Southwest  Level Estimated
Tue 10:19:00 AM 58.9380 -38.3319 240° Southwest  Level Estimated
Tue 10:20:00 AM 58.8805 -38.5265 240° Southwest  Level Estimated
Tue 10:21:00 AM 58.8228 -38.7205 240° Southwest  Level Estimated
Tue 10:22:00 AM 58.7647 -38.9138 240° Southwest  Level Estimated
Tue 10:23:00 AM 58.7064 -39.1064 240° Southwest  Level Estimated
Tue 10:24:00 AM 58.6478 -39.2984 240° Southwest  Level Estimated
Tue 10:25:00 AM 58.5888 -39.4898 239° Southwest  Level Estimated
Tue 10:26:00 AM 58.5297 -39.6805 239° Southwest  Level Estimated
Tue 10:27:00 AM 58.4702 -39.8706 239° Southwest  Level Estimated
Tue 10:28:00 AM 58.4104 -40.0600 239° Southwest  Level Estimated
Tue 10:29:00 AM 58.3504 -40.2488 239° Southwest  Level Estimated
Tue 10:30:00 AM 58.2901 -40.4369 239° Southwest  Level Estimated
Tue 10:31:00 AM 58.2295 -40.6244 239° Southwest  Level Estimated
Tue 10:32:00 AM 58.1686 -40.8113 238° Southwest  Level Estimated
Tue 10:33:00 AM 58.1075 -40.9975 238° Southwest  Level Estimated
Tue 10:34:00 AM 58.0461 -41.1831 238° Southwest  Level Estimated
Tue 10:35:00 AM 57.9844 -41.3680 238° Southwest  Level Estimated
Tue 10:36:00 AM 57.9225 -41.5523 238° Southwest  Level Estimated
Tue 10:37:00 AM 57.8603 -41.7360 238° Southwest  Level Estimated
Tue 10:38:00 AM 57.7978 -41.9190 237° Southwest  Level Estimated
Tue 10:39:00 AM 57.7351 -42.1014 237° Southwest  Level Estimated
Tue 10:40:00 AM 57.6721 -42.2832 237° Southwest  Level Estimated
Tue 10:41:00 AM 57.6089 -42.4643 237° Southwest  Level Estimated
Tue 10:42:00 AM 57.5453 -42.6449 237° Southwest  Level Estimated
Tue 10:43:00 AM 57.4816 -42.8247 237° Southwest  Level Estimated
Tue 10:44:00 AM 57.4176 -43.0040 236° Southwest  Level Estimated
Tue 10:45:00 AM 57.3533 -43.1826 236° Southwest  Level Estimated
Tue 10:46:00 AM 57.2887 -43.3606 236° Southwest  Level Estimated
Tue 10:47:00 AM 57.2240 -43.5380 236° Southwest  Level Estimated
Tue 10:48:00 AM 57.1589 -43.7147 236° Southwest  Level Estimated
Tue 10:49:00 AM 57.0937 -43.8909 236° Southwest  Level Estimated
Tue 10:50:00 AM 57.0281 -44.0664 236° Southwest  Level Estimated
Tue 10:51:00 AM 56.9624 -44.2412 235° Southwest  Level Estimated
Tue 10:52:00 AM 56.8964 -44.4155 235° Southwest  Level Estimated
Tue 10:53:00 AM 56.8301 -44.5892 235° Southwest  Level Estimated
Tue 10:54:00 AM 56.7636 -44.7622 235° Southwest  Level Estimated
Tue 10:55:00 AM 56.6969 -44.9346 235° Southwest  Level Estimated
Tue 10:56:00 AM 56.6299 -45.1065 235° Southwest  Level Estimated
Tue 10:57:00 AM 56.5627 -45.2777 235° Southwest  Level Estimated
Tue 10:58:00 AM 56.4953 -45.4483 234° Southwest  Level Estimated
Tue 10:59:00 AM 56.4276 -45.6183 234° Southwest  Level Estimated
Tue 11:00:00 AM 56.3597 -45.7877 234° Southwest  Level Estimated
Tue 11:01:00 AM 56.2916 -45.9564 234° Southwest  Level Estimated
Tue 11:02:00 AM 56.2232 -46.1246 234° Southwest  Level Estimated
Tue 11:03:00 AM 56.1546 -46.2922 234° Southwest  Level Estimated
Tue 11:04:00 AM 56.0858 -46.4592 234° Southwest  Level Estimated
Tue 11:05:00 AM 56.0168 -46.6256 233° Southwest  Level Estimated
Tue 11:06:00 AM 55.9475 -46.7914 233° Southwest  Level Estimated
Tue 11:07:00 AM 55.8781 -46.9566 233° Southwest  Level Estimated
Tue 11:08:00 AM 55.8070 -47.1243 233° Southwest  Level Estimated
Tue 11:09:00 AM 55.7357 -47.2914 233° Southwest  Level Estimated
Tue 11:10:00 AM 55.6642 -47.4580 233° Southwest  Level Estimated
Tue 11:11:00 AM 55.5925 -47.6239 233° Southwest  Level Estimated
Tue 11:12:00 AM 55.5206 -47.7892 232° Southwest  Level Estimated
Tue 11:13:00 AM 55.4484 -47.9539 232° Southwest  Level Estimated
Tue 11:14:00 AM 55.3760 -48.1180 232° Southwest  Level Estimated
Tue 11:14:31 AM 59.4167 -56.9000 232° Southwest 440 506 37,000  Level Gander Center
Tue 11:15:00 AM 55.3035 -48.2815 232° Southwest  Level Estimated
Tue 11:15:31 AM 59.3333 -57.0667 226° Southwest 450 518 37,000  Level Gander Center
Tue 11:16:00 AM 55.2306 -48.4444 232° Southwest  Level Estimated
Tue 11:16:31 AM 59.2167 -57.2167 213° Southwest 440 506 37,000  Level Gander Center
Tue 11:17:00 AM 55.1576 -48.6067 232° Southwest  Level Estimated
Tue 11:17:31 AM 59.1333 -57.3500 219° Southwest 440 506 37,000  Level Gander Center
Tue 11:18:00 AM 55.0844 -48.7685 232° Southwest  Level Estimated
Tue 11:18:31 AM 59.0167 -57.5000 214° Southwest 440 506 37,000  Level Gander Center
Tue 11:19:00 AM 55.0109 -48.9296 232° Southwest  Level Estimated
Tue 11:19:31 AM 58.9167 -57.6333 215° Southwest 440 506 37,000  Level Gander Center
Tue 11:20:31 AM 58.8167 -57.7500 211° Southwest 440 506 37,000  Level Gander Center
Tue 11:21:31 AM 58.7167 -57.8833 215° Southwest 450 518 37,000  Level Gander Center
Tue 11:22:31 AM 58.6167 -58.0167 215° Southwest 450 518 37,000  Level Gander Center
Tue 11:23:31 AM 58.5000 -58.1500 211° Southwest 450 518 37,000  Level Gander Center
Tue 11:24:31 AM 58.4000 -58.3000 218° Southwest 450 518 37,000  Level Gander Center
Tue 11:25:31 AM 58.3000 -58.4000 208° Southwest 450 518 37,000  Level Gander Center
Tue 11:26:31 AM 58.1833 -58.5333 211° Southwest 440 506 37,000  Level Gander Center
Tue 11:27:31 AM 58.1000 -58.6667 220° Southwest 440 506 37,000  Level Gander Center
Tue 11:28:31 AM 58.0000 -58.8000 215° Southwest 440 506 37,000  Level Gander Center
Tue 11:29:31 AM 57.8833 -58.9333 211° Southwest 440 506 37,000  Level Gander Center
Tue 11:30:31 AM 57.7833 -59.0333 208° Southwest 450 518 37,000  Level Gander Center
Tue 11:31:31 AM 57.6667 -59.1667 211° Southwest 450 518 37,000  Level Gander Center
Tue 11:32:31 AM 57.5833 -59.2667 213° Southwest 450 518 37,000  Level Gander Center
Tue 11:33:31 AM 57.4500 -59.4167 211° Southwest 450 518 37,000  Level Gander Center
Tue 11:34:31 AM 57.3667 -59.5500 221° Southwest 450 518 37,000  Level Gander Center
Tue 11:35:31 AM 57.2833 -59.6500 213° Southwest 450 518 37,000  Level Gander Center
Tue 11:36:31 AM 57.1667 -59.7500 205° Southwest 450 518 37,000  Level Gander Center
Tue 11:37:31 AM 57.0667 -59.8667 212° Southwest 450 518 37,000  Level Gander Center
Tue 11:38:31 AM 56.9500 -60.0000 212° Southwest 440 506 37,000  Level Gander Center
Tue 11:39:31 AM 56.8333 -60.1500 215° Southwest 450 518 37,000  Level Gander Center
Tue 11:40:31 AM 56.7333 -60.2500 209° Southwest 450 518 37,000  Level Gander Center
Tue 11:41:31 AM 56.6167 -60.3667 209° Southwest 450 518 37,000  Level Gander Center
Tue 11:42:31 AM 56.5167 -60.5000 216° Southwest 450 518 37,000  Level Gander Center
Tue 11:43:31 AM 56.4000 -60.6167 209° Southwest 450 518 37,000  Level Gander Center
Tue 11:44:31 AM 56.3000 -60.7167 209° Southwest 450 518 37,000  Level Gander Center
Tue 11:45:31 AM 56.2000 -60.8333 213° Southwest 450 518 37,000  Level Gander Center
Tue 11:46:31 AM 56.0833 -60.9500 209° Southwest 450 518 37,000  Level Gander Center
Tue 11:47:31 AM 55.9833 -61.0667 213° Southwest 440 506 37,000  Level Gander Center
Tue 11:48:31 AM 55.8667 -61.2000 213° Southwest 450 518 37,000  Level Gander Center
Tue 11:49:31 AM 55.7667 -61.2833 205° Southwest 450 518 37,000  Level Gander Center
Tue 11:50:31 AM 55.6500 -61.4000 209° Southwest 450 518 37,000  Level Gander Center
Tue 11:51:31 AM 55.5500 -61.5167 213° Southwest 450 518 37,000  Level Gander Center
Tue 11:52:31 AM 55.4500 -61.6333 214° Southwest 450 518 37,000  Level Gander Center
Tue 11:53:31 AM 55.3333 -61.7500 210° Southwest 450 518 37,000  Level Gander Center
Tue 11:54:31 AM 55.2333 -61.8333 205° Southwest 450 518 37,000  Level Gander Center
Tue 11:55:31 AM 55.1167 -61.9500 210° Southwest 450 518 37,000  Level Gander Center
Tue 11:56:31 AM 55.0000 -62.0667 210° Southwest 460 529 37,000  Level Gander Center
Tue 11:57:31 AM 54.9000 -62.1833 214° Southwest 460 529 37,000  Level Gander Center
Tue 11:58:31 AM 54.7833 -62.3000 210° Southwest 450 518 37,000  Level Gander Center
Tue 11:59:31 AM 54.6833 -62.4167 214° Southwest 450 518 37,000  Level Gander Center
Tue 12:00:31 PM 54.5667 -62.5000 202° Southwest 440 506 37,000  Level Gander Center
Tue 12:01:31 PM 54.4667 -62.6000 210° Southwest 440 506 37,000  Level Gander Center
Tue 12:02:31 PM 54.3500 -62.7167 210° Southwest 450 518 37,000  Level Gander Center
Tue 12:03:31 PM 54.2333 -62.8333 210° Southwest 450 518 37,000  Level Gander Center
Tue 12:04:31 PM 54.1333 -62.9000 201° Southwest 450 518 37,000  Level Gander Center
Tue 12:05:31 PM 54.0167 -63.0167 210° Southwest 450 518 37,000  Level Gander Center
Tue 12:06:31 PM 53.9167 -63.1333 215° Southwest 450 518 37,000  Level Gander Center
Tue 12:07:31 PM 53.8167 -63.2333 211° Southwest 450 518 37,000  Level Gander Center
Tue 12:08:31 PM 53.7000 -63.3500 211° Southwest 440 506 37,000  Level Gander Center
Tue 12:09:31 PM 53.6000 -63.4167 202° Southwest 440 506 37,000  Level Gander Center
Tue 12:10:31 PM 53.4833 -63.5333 211° Southwest 440 506 37,000 -150 Level Gander Center
Tue 12:11:31 PM 53.3667 -63.6333 207° Southwest 440 506 36,700 -400 Descending Gander Center
Tue 12:12:31 PM 53.2667 -63.7167 206° Southwest 450 518 36,200 -350 Descending Gander Center
Tue 12:13:31 PM 53.1500 -63.8167 207° Southwest 440 506 36,000 -100 Descending Gander Center
Tue 12:14:31 PM 53.0500 -63.9167 211° Southwest 450 518 36,000  Level Gander Center
Tue 12:15:31 PM 52.9333 -64.0333 211° Southwest 440 506 36,000  Level Gander Center
Tue 12:16:31 PM 52.8333 -64.1000 202° Southwest 440 506 36,000  Level Gander Center
Tue 12:17:31 PM 52.7167 -64.2000 207° Southwest 440 506 36,000  Level Gander Center
Tue 12:18:31 PM 52.6000 -64.3167 211° Southwest 440 506 36,000  Level Gander Center
Tue 12:19:31 PM 52.5000 -64.4167 211° Southwest 440 506 36,000  Level Gander Center
Tue 12:20:31 PM 52.4000 -64.4833 202° Southwest 430 495 36,000  Level Gander Center
Tue 12:21:31 PM 52.2833 -64.5833 208° Southwest 440 506 36,000  Level Gander Center
Tue 12:22:31 PM 52.1833 -64.6667 207° Southwest 430 495 36,000  Level Gander Center
Tue 12:23:31 PM 52.0667 -64.7667 208° Southwest 440 506 36,000  Level Gander Center
Tue 12:24:31 PM 51.9667 -64.8667 212° Southwest 440 506 36,000  Level Gander Center
Tue 12:25:31 PM 51.8500 -64.9667 208° Southwest 440 506 36,000  Level Gander Center
Tue 12:26:31 PM 51.7500 -65.0333 202° Southwest 440 506 36,000  Level Gander Center
Tue 12:27:31 PM 51.6500 -65.1333 212° Southwest 430 495 36,000  Level Gander Center
Tue 12:28:31 PM 51.5333 -65.2000 200° South 440 506 36,000  Level Gander Center
Tue 12:29:31 PM 51.4167 -65.3000 208° Southwest 440 506 36,000  Level Gander Center
Tue 12:30:31 PM 51.3167 -65.4000 212° Southwest 430 495 36,000  Level Gander Center
Tue 12:31:31 PM 51.2167 -65.4667 203° Southwest 430 495 36,000  Level Gander Center
Tue 12:32:31 PM 51.1000 -65.5667 208° Southwest 430 495 36,000  Level Gander Center
Tue 12:33:31 PM 50.9833 -65.6667 208° Southwest 430 495 36,000  Level Gander Center
Tue 12:34:31 PM 50.8833 -65.7333 203° Southwest 430 495 36,000  Level Gander Center
Tue 12:35:31 PM 50.7833 -65.8333 212° Southwest 430 495 36,000  Level Gander Center
Tue 12:36:31 PM 50.6667 -65.9333 209° Southwest 430 495 36,000  Level Gander Center
Tue 12:37:31 PM 50.5833 -66.0000 207° Southwest 430 495 36,000  Level Gander Center
Tue 12:38:31 PM 50.4667 -66.1000 209° Southwest 430 495 36,000  Level Gander Center
Tue 12:39:31 PM 50.3500 -66.1667 200° South 430 495 36,000  Level Gander Center
Tue 12:40:31 PM 50.2500 -66.2500 208° Southwest 430 495 36,000  Level Gander Center
Tue 12:41:31 PM 50.1500 -66.3167 203° Southwest 430 495 36,000  Level Gander Center
Tue 12:42:31 PM 50.0167 -66.3833 198° South 430 495 36,000  Level Gander Center
Tue 12:43:31 PM 49.9167 -66.4500 203° Southwest 430 495 36,000  Level Gander Center
Tue 12:44:31 PM 49.8000 -66.5167 200° South 430 495 36,000  Level Gander Center
Tue 12:45:31 PM 49.6833 -66.5833 200° South 430 495 36,000  Level Gander Center
Tue 12:46:31 PM 49.5833 -66.6500 203° Southwest 440 506 36,000  Level Gander Center
Tue 12:47:31 PM 49.4500 -66.7167 198° South 440 506 36,000  Level Gander Center
Tue 12:48:31 PM 49.3333 -66.7500 191° South 430 495 36,000  Level Gander Center
Tue 12:49:31 PM 49.2167 -66.8333 205° Southwest 440 506 36,000  Level Gander Center
Tue 12:50:31 PM 49.1167 -66.8833 198° South 440 506 36,000  Level Gander Center
Tue 12:51:31 PM 48.9833 -66.9667 202° Southwest 440 506 36,000  Level Gander Center
Tue 12:52:31 PM 48.8667 -67.0000 191° South 440 506 36,000  Level Gander Center
Tue 12:53:31 PM 48.7667 -67.0667 204° Southwest 440 506 36,000  Level Gander Center
Tue 12:54:31 PM 48.6500 -67.1333 201° Southwest 440 506 36,000  Level Gander Center
Tue 12:59:53 PM 48.0425 -67.4573 201° Southwest 437 503 36,000  Level FlightAware ADS-B
Tue 01:00:25 PM 47.9818 -67.4885 199° South 438 504 36,000  Level FlightAware ADS-B
Tue 01:00:56 PM 47.9242 -67.5181 199° South 439 505 36,000  Level FlightAware ADS-B
Tue 01:01:26 PM 47.8654 -67.5482 199° South 438 504 36,000  Level FlightAware ADS-B
Tue 01:02:06 PM 47.8015 -67.5808 199° South 435 501 36,000  Level FlightAware ADS-B
Tue 01:02:36 PM 47.7319 -67.6162 199° South 434 499 36,000  Level FlightAware ADS-B
Tue 01:03:55 PM 47.5825 -67.6922 199° South 437 503 36,000  Level FlightAware ADS-B
Tue 01:04:46 PM 47.4945 -67.7366 199° South 438 504 36,000  Level FlightAware ADS-B
Tue 01:05:16 PM 47.4315 -67.7683 199° South 439 505 36,000  Level FlightAware ADS-B
Tue 01:05:47 PM 47.3756 -67.7965 199° South 440 506 36,000  Level FlightAware ADS-B
Tue 01:06:25 PM 47.2957 -67.8365 199° South 438 504 36,000  Level FlightAware ADS-B
Tue 01:07:01 PM 47.2267 -67.8709 199° South 437 503 36,000  Level FlightAware ADS-B
Tue 01:07:52 PM 47.1296 -67.9194 199° South 431 496 36,000  Level FlightAware ADS-B
Tue 01:08:24 PM 47.0695 -67.9492 199° South 429 494 36,000  Level FlightAware ADS-B
Tue 01:09:13 PM 46.9777 -67.9947 199° South 427 491 36,000  Level FlightAware ADS-B
Tue 01:09:43 PM 46.9230 -68.0216 199° South 423 487 36,000  Level FlightAware ADS-B
Tue 01:10:23 PM 46.8508 -68.0570 199° South 422 486 36,000  Level FlightAware ADS-B
Tue 01:10:59 PM 46.7809 -68.0913 199° South 426 490 36,000  Level FlightAware ADS-B
Tue 01:11:33 PM 46.7164 -68.1206 197° South 429 494 36,000  Level FlightAware ADS-B
Tue 01:12:04 PM 46.6575 -68.1440 195° South 425 489 36,000  Level FlightAware ADS-B
Tue 01:12:41 PM 46.5880 -68.1724 196° South 422 486 36,000  Level FlightAware ADS-B
Tue 01:13:13 PM 46.5310 -68.1962 196° South 420 483 36,000  Level FlightAware ADS-B
Tue 01:13:53 PM 46.4660 -68.2229 196° South 420 483 36,000  Level FlightAware ADS-B
Tue 01:14:24 PM 46.3960 -68.2517 196° South 418 481 36,000  Level FlightAware ADS-B
Tue 01:15:04 PM 46.3221 -68.2820 196° South 416 479 36,000  Level FlightAware ADS-B
Tue 01:15:34 PM 46.2773 -68.3005 196° South 415 478 36,000  Level FlightAware ADS-B
Tue 01:16:09 PM 46.2005 -68.3320 196° South 416 479 36,000  Level FlightAware ADS-B
Tue 01:16:44 PM 46.1368 -68.3580 196° South 418 481 36,000  Level FlightAware ADS-B
Tue 01:17:22 PM 46.0661 -68.3869 196° South 419 482 36,000  Level FlightAware ADS-B
Tue 01:18:05 PM 45.9897 -68.4180 196° South 420 483 36,000  Level FlightAware ADS-B
Tue 01:18:41 PM 45.9203 -68.4461 196° South 422 486 36,000  Level FlightAware ADS-B
Tue 01:19:15 PM 45.8558 -68.4722 196° South 422 486 36,000  Level FlightAware ADS-B
Tue 01:19:54 PM 45.7817 -68.5021 196° South 423 487 36,000  Level FlightAware ADS-B
Tue 01:20:35 PM 45.7040 -68.5333 196° South 426 490 36,000  Level FlightAware ADS-B
Tue 01:21:08 PM 45.6446 -68.5571 196° South 429 494 36,000  Level FlightAware ADS-B (WASR / MKW)
Tue 01:21:40 PM 45.5807 -68.5827 196° South 430 495 36,000  Level FlightAware ADS-B (WASR / MKW)
Tue 01:22:11 PM 45.5350 -68.6009 196° South 431 496 36,000  Level FlightAware ADS-B (WASR / MKW)
Tue 01:22:45 PM 45.4576 -68.6318 196° South 432 497 36,000  Level FlightAware ADS-B
Tue 01:23:15 PM 45.3973 -68.6558 196° South 433 498 36,000  Level FlightAware ADS-B
Tue 01:23:45 PM 45.3426 -68.6775 196° South 433 498 36,000  Level FlightAware ADS-B
Tue 01:24:16 PM 45.2822 -68.7014 196° South 432 497 36,000  Level FlightAware ADS-B (EGUN / MHZ)
Tue 01:24:51 PM 45.2179 -68.7267 195° South 431 496 36,000  Level FlightAware ADS-B (WASR / MKW)
Tue 01:25:26 PM 45.1484 -68.7541 196° South 431 496 36,000  Level FlightAware ADS-B (EGUN / MHZ)
Tue 01:25:56 PM 45.0895 -68.7774 196° South 432 497 36,000  Level FlightAware ADS-B
Tue 01:26:15 PM 45.0542 -68.7970 201° Southwest 428 493 36,000  Level FlightAware ADS-B
Tue 01:26:46 PM 45.0055 -68.8451 215° Southwest 427 491 36,000  Level FlightAware ADS-B (EGUN / MHZ)
Tue 01:27:17 PM 44.9533 -68.8974 215° Southwest 428 493 36,000  Level FlightAware ADS-B (WASR / MKW)
Tue 01:27:55 PM 44.8983 -68.9521 215° Southwest 430 495 36,000  Level FlightAware ADS-B (EGUN / MHZ)
Tue 01:28:26 PM 44.8424 -69.0075 215° Southwest 431 496 36,000  Level FlightAware ADS-B
Tue 01:28:56 PM 44.7935 -69.0554 215° Southwest 432 497 36,000  Level FlightAware ADS-B
Tue 01:29:28 PM 44.7407 -69.1073 215° Southwest 430 495 36,000  Level FlightAware ADS-B (WASR / MKW)
Tue 01:29:58 PM 44.6952 -69.1518 215° Southwest 429 494 36,000  Level FlightAware ADS-B (WASR / MKW)
Tue 01:30:36 PM 44.6608 -69.1854 215° Southwest 428 493 36,000  Level FlightAware ADS-B (EGUN / MHZ)
Tue 01:31:09 PM 44.5786 -69.2655 215° Southwest 426 490 36,000  Level FlightAware ADS-B (EGUN / MHZ)
Tue 01:31:40 PM 44.5349 -69.3081 215° Southwest 425 489 36,000  Level FlightAware ADS-B (EGUN / MHZ)
Tue 01:32:10 PM 44.4792 -69.3621 215° Southwest 425 489 36,000  Level FlightAware ADS-B (EGUN / MHZ)
Tue 01:32:16 PM 44.4688 -69.3721 215° Southwest 419 482 36,000  Level FlightAware ADS-B
Tue 01:32:50 PM 44.4141 -69.4252 215° Southwest 425 489 36,000  Level FlightAware ADS-B
Tue 01:33:20 PM 44.3663 -69.4713 215° Southwest 424 488 36,000  Level FlightAware ADS-B
Tue 01:33:52 PM 44.3161 -69.5197 215° Southwest 424 488 36,000  Level FlightAware ADS-B (EGUN / MHZ)
Tue 01:34:23 PM 44.2655 -69.5684 215° Southwest 426 490 36,000  Level FlightAware ADS-B (EGUN / MHZ)
Tue 01:34:53 PM 44.2146 -69.6172 214° Southwest 426 490 36,000  Level FlightAware ADS-B (EGUN / MHZ)
Tue 01:35:28 PM 44.1577 -69.6717 214° Southwest 424 488 36,000  Level FlightAware ADS-B
Tue 01:35:33 PM 44.1498 -69.6792 214° Southwest 418 481 36,000  Level FlightAware ADS-B
Tue 01:35:38 PM 44.1419 -69.6868 215° Southwest 418 481 36,000  Level FlightAware ADS-B
Tue 01:35:57 PM 44.1129 -69.7144 214° Southwest 425 489 36,000  Level FlightAware ADS-B (WASR / MKW)
Tue 01:36:33 PM 44.0609 -69.7641 214° Southwest 424 488 36,000  Level FlightAware ADS-B (EGUN / MHZ)
Tue 01:37:04 PM 44.0083 -69.8141 214° Southwest 425 489 36,000  Level FlightAware ADS-B (EGUN / MHZ)
Tue 01:37:41 PM 43.9436 -69.8754 214° Southwest 427 491 36,000  Level FlightAware ADS-B (KBOS)
Tue 01:38:14 PM 43.8929 -69.9233 214° Southwest 429 494 36,000  Level FlightAware ADS-B (EGUN / MHZ)
Tue 01:38:46 PM 43.8389 -69.9746 214° Southwest 431 496 36,000  Level FlightAware ADS-B
Tue 01:39:19 PM 43.7826 -70.0277 214° Southwest 431 496 36,000  Level FlightAware ADS-B
Tue 01:39:49 PM 43.7331 -70.0742 214° Southwest 431 496 36,000  Level FlightAware ADS-B
Tue 01:40:20 PM 43.6820 -70.1222 214° Southwest 429 494 36,000  Level FlightAware ADS-B
Tue 01:40:51 PM 43.6314 -70.1695 214° Southwest 426 490 36,000  Level FlightAware ADS-B
Tue 01:41:23 PM 43.5788 -70.2186 214° Southwest 416 479 36,000  Level FlightAware ADS-B
Tue 01:41:53 PM 43.5333 -70.2610 214° Southwest 422 486 36,000  Level FlightAware ADS-B (KBOS)
Tue 01:42:24 PM 43.4810 -70.3097 214° Southwest 414 476 36,000  Level FlightAware ADS-B
Tue 01:42:55 PM 43.4333 -70.3540 214° Southwest 413 475 36,000  Level FlightAware ADS-B
Tue 01:43:29 PM 43.3764 -70.4068 214° Southwest 415 478 36,000  Level FlightAware ADS-B
Tue 01:43:37 PM 43.3654 -70.4170 214° Southwest 422 486 36,000  Level FlightAware ADS-B (SBBR / BSB)
Tue 01:44:06 PM 43.3161 -70.4626 214° Southwest 422 486 36,000  Level FlightAware ADS-B (SBBR / BSB)
Tue 01:44:12 PM 43.3106 -70.4677 214° Southwest 422 486 36,000  Level FlightAware ADS-B (EGUN / MHZ)
Tue 01:44:42 PM 43.2591 -70.5152 214° Southwest 423 487 36,000  Level FlightAware ADS-B (SBBR / BSB)
Tue 01:45:14 PM 43.2064 -70.5637 214° Southwest 424 488 36,000  Level FlightAware ADS-B
Tue 01:45:50 PM 43.1501 -70.6156 214° Southwest 422 486 36,000  Level FlightAware ADS-B (SBBR / BSB)
Tue 01:46:27 PM 43.0876 -70.6728 214° Southwest 421 484 36,000  Level FlightAware ADS-B (SBBR / BSB)
Tue 01:47:02 PM 43.0317 -70.7238 214° Southwest 421 484 36,000  Level FlightAware ADS-B (KBOS)
Tue 01:47:39 PM 42.9711 -70.7791 214° Southwest 423 487 36,000  Level FlightAware ADS-B
Tue 01:48:10 PM 42.9211 -70.8246 214° Southwest 424 488 36,000  Level FlightAware ADS-B
Tue 01:48:40 PM 42.8716 -70.8696 214° Southwest 426 490 36,000  Level FlightAware ADS-B
Tue 01:49:17 PM 42.8118 -70.9237 214° Southwest 426 490 36,000  Level FlightAware ADS-B (KBOS)
Tue 01:49:50 PM 42.7587 -70.9718 214° Southwest 426 490 36,000  Level FlightAware ADS-B (KBOS)
Tue 01:50:23 PM 42.7029 -71.0221 214° Southwest 427 491 36,000  Level FlightAware ADS-B
Tue 01:50:54 PM 42.6524 -71.0677 214° Southwest 428 493 36,000  Level FlightAware ADS-B (KBOS)
Tue 01:51:25 PM 42.6009 -71.1139 213° Southwest 426 490 36,000  Level FlightAware ADS-B
Tue 01:51:56 PM 42.5499 -71.1597 213° Southwest 424 488 36,000  Level FlightAware ADS-B
Tue 01:52:28 PM 42.4983 -71.2058 213° Southwest 423 487 36,000  Level FlightAware ADS-B (KBOS)
Tue 01:52:58 PM 42.4488 -71.2498 213° Southwest 425 489 36,000  Level FlightAware ADS-B
Tue 01:53:09 PM 42.4307 -71.2661 213° Southwest 426 490 36,000  Level FlightAware ADS-B
Tue 01:53:39 PM 42.3812 -71.3101 213° Southwest 427 491 36,000  Level FlightAware ADS-B
Tue 01:54:10 PM 42.3311 -71.3548 213° Southwest 424 488 36,000  Level FlightAware ADS-B
Tue 01:54:40 PM 42.2827 -71.3978 213° Southwest 422 486 36,000  Level FlightAware ADS-B
Tue 01:55:11 PM 42.2335 -71.4414 213° Southwest 419 482 36,000  Level FlightAware ADS-B
Tue 01:55:52 PM 42.1656 -71.5015 213° Southwest 409 471 36,000  Level FlightAware ADS-B
Tue 01:56:22 PM 42.1175 -71.5440 213° Southwest 407 468 36,000  Level FlightAware ADS-B
Tue 01:56:55 PM 42.0645 -71.5904 213° Southwest 407 468 36,000  Level FlightAware ADS-B
Tue 01:57:17 PM 42.0293 -71.6214 213° Southwest 407 468 36,000  Level FlightAware ADS-B
Tue 01:57:30 PM 42.0086 -71.6395 213° Southwest 413 475 36,000  Level FlightAware ADS-B (KBOS)
Tue 01:57:46 PM 41.9918 -71.6541 213° Southwest 414 476 36,000  Level FlightAware ADS-B (KBOS)
Tue 01:57:51 PM 41.9740 -71.6697 213° Southwest 415 478 36,000  Level FlightAware ADS-B
Tue 01:58:19 PM 41.9298 -71.7085 213° Southwest 409 471 36,000  Level FlightAware ADS-B
Tue 01:58:29 PM 41.9137 -71.7226 213° Southwest 410 472 36,000  Level FlightAware ADS-B
Tue 01:58:38 PM 41.8993 -71.7353 213° Southwest 411 473 36,000  Level FlightAware ADS-B
Tue 01:58:49 PM 41.8813 -71.7510 213° Southwest 412 474 36,000  Level FlightAware ADS-B
Tue 01:58:59 PM 41.8655 -71.7649 213° Southwest 412 474 36,000  Level FlightAware ADS-B
Tue 01:59:09 PM 41.8503 -71.7783 213° Southwest 412 474 36,000  Level FlightAware ADS-B
Tue 01:59:39 PM 41.7993 -71.8225 213° Southwest 419 482 36,000  Level FlightAware ADS-B (KSNC)
Tue 02:00:10 PM 41.7503 -71.8650 213° Southwest 421 484 36,000  Level FlightAware ADS-B (KSNC)
Tue 02:00:40 PM 41.7081 -71.9017 213° Southwest 424 488 36,000  Level FlightAware ADS-B (KSNC)
Tue 02:01:10 PM 41.6506 -71.9515 213° Southwest 424 488 36,000  Level FlightAware ADS-B (KSNC)
Tue 02:01:42 PM 41.6017 -71.9938 213° Southwest 427 491 36,000  Level FlightAware ADS-B (KSNC)
Tue 02:02:14 PM 41.5452 -72.0427 213° Southwest 427 491 36,000  Level FlightAware ADS-B (SBBR / BSB)
Tue 02:02:46 PM 41.4986 -72.0829 213° Southwest 427 491 36,000  Level FlightAware ADS-B (KSNC)
Tue 02:03:17 PM 41.4417 -72.1318 213° Southwest 425 489 36,000  Level FlightAware ADS-B (KSNC)
Tue 02:03:50 PM 41.3877 -72.1783 213° Southwest 423 487 36,000  Level FlightAware ADS-B (KSNC)
Tue 02:04:24 PM 41.3373 -72.2302 218° Southwest 421 484 36,000  Level FlightAware ADS-B (SBBR / BSB)
Tue 02:04:54 PM 41.2888 -72.2811 218° Southwest 424 488 36,000  Level FlightAware ADS-B (SBBR / BSB)
Tue 02:05:24 PM 41.2615 -72.3097 218° Southwest 427 491 36,000  Level FlightAware ADS-B (SBBR / BSB)
Tue 02:05:55 PM 41.1954 -72.3790 218° Southwest 427 491 36,000  Level FlightAware ADS-B (SBBR / BSB)
Tue 02:06:29 PM 41.1436 -72.4330 218° Southwest 425 489 36,000  Level FlightAware ADS-B (KSNC)
Tue 02:07:06 PM 41.0959 -72.4826 218° Southwest 425 489 36,000  Level FlightAware ADS-B (SBBR / BSB)
Tue 02:07:37 PM 41.0382 -72.5424 218° Southwest 424 488 36,000  Level FlightAware ADS-B (KSNC)
Tue 02:08:07 PM 40.9930 -72.5894 218° Southwest 422 486 36,000  Level FlightAware ADS-B (KSNC)
Tue 02:08:46 PM 40.9318 -72.6526 218° Southwest 418 481 36,000  Level FlightAware ADS-B (KSNC)
Tue 02:09:35 PM 40.8565 -72.7302 218° Southwest 418 481 36,000  Level FlightAware ADS-B
Tue 02:10:05 PM 40.8128 -72.7750 218° Southwest 420 483 36,000  Level FlightAware ADS-B (KSNC)
Tue 02:10:35 PM 40.7664 -72.8227 218° Southwest 421 484 36,000  Level FlightAware ADS-B (KSNC)
Tue 02:11:06 PM 40.7177 -72.8727 218° Southwest 425 489 36,000  Level FlightAware ADS-B (KSNC)
Tue 02:11:37 PM 40.6694 -72.9221 218° Southwest 427 491 36,000  Level FlightAware ADS-B (KSNC)
Tue 02:12:08 PM 40.6230 -72.9694 218° Southwest 428 493 36,000  Level FlightAware ADS-B (KSNC)
Tue 02:12:38 PM 40.5749 -73.0183 218° Southwest 430 495 36,000  Level FlightAware ADS-B (KSNC)
Tue 02:13:12 PM 40.5190 -73.0751 218° Southwest 431 496 36,000  Level FlightAware ADS-B (KWWD)
Tue 02:13:50 PM 40.4588 -73.1362 218° Southwest 431 496 36,000  Level FlightAware ADS-B (KWWD)
Tue 02:14:26 PM 40.4041 -73.1916 218° Southwest 433 498 36,000  Level FlightAware ADS-B (KSNC)
Tue 02:14:37 PM 40.3848 -73.2111 218° Southwest 428 493 36,000  Level FlightAware ADS-B (KWWD)
Tue 02:15:10 PM 40.3329 -73.2636 218° Southwest 436 502 36,000  Level FlightAware ADS-B (KSNC)
Tue 02:15:41 PM 40.2841 -73.3126 217° Southwest 435 501 36,000  Level FlightAware ADS-B (KSNC)
Tue 02:16:20 PM 40.2215 -73.3754 217° Southwest 428 493 36,000  Level FlightAware ADS-B (KWWD)
Tue 02:16:54 PM 40.1691 -73.4280 217° Southwest 428 493 36,000  Level FlightAware ADS-B (KSNC)
Tue 02:17:26 PM 40.1177 -73.4796 217° Southwest 427 491 36,000  Level FlightAware ADS-B (KWWD)
Tue 02:17:57 PM 40.0693 -73.5279 217° Southwest 425 489 36,000  Level FlightAware ADS-B (KWWD)
Tue 02:18:23 PM 40.0300 -73.5670 217° Southwest 423 487 36,000  Level FlightAware ADS-B (KWWD)
Tue 02:18:59 PM 39.9752 -73.6215 217° Southwest 422 486 36,000  Level FlightAware ADS-B (KWWD)
Tue 02:19:34 PM 39.9237 -73.6727 217° Southwest 421 484 36,000  Level FlightAware ADS-B (KSNC)
Tue 02:20:04 PM 39.8748 -73.7212 217° Southwest 421 484 36,000  Level FlightAware ADS-B
Tue 02:20:39 PM 39.8200 -73.7753 217° Southwest 421 484 36,000  Level FlightAware ADS-B (KSNC)
Tue 02:21:19 PM 39.7552 -73.8338 215° Southwest 420 483 36,000  Level FlightAware ADS-B (KWWD)
Tue 02:21:38 PM 39.7218 -73.8600 211° Southwest 420 483 36,000  Level FlightAware ADS-B (KWWD)
Tue 02:22:17 PM 39.6612 -73.9082 211° Southwest 427 491 36,000  Level FlightAware ADS-B (KSNC)
Tue 02:22:37 PM 39.6238 -73.9385 212° Southwest 419 482 36,000  Level FlightAware ADS-B (KWWD)
Tue 02:22:51 PM 39.5997 -73.9582 212° Southwest 418 481 36,000  Level FlightAware ADS-B (KWWD)
Tue 02:23:21 PM 39.5514 -73.9975 212° Southwest 419 482 36,000  Level FlightAware ADS-B (KSNC)
Tue 02:23:54 PM 39.5009 -74.0386 212° Southwest 418 481 36,000  Level FlightAware ADS-B (KSNC)
Tue 02:24:25 PM 39.4465 -74.0828 212° Southwest 416 479 36,000  Level FlightAware ADS-B (KSNC)
Tue 02:25:01 PM 39.3861 -74.1317 212° Southwest 418 481 36,000  Level FlightAware ADS-B (KWWD)
Tue 02:25:35 PM 39.3349 -74.1726 212° Southwest 412 474 36,000  Level FlightAware ADS-B (KSNC)
Tue 02:25:43 PM 39.3181 -74.1862 212° Southwest 406 467 36,000  Level FlightAware ADS-B (KWWD)
Tue 02:26:18 PM 39.2630 -74.2304 212° Southwest 414 476 36,000  Level FlightAware ADS-B (KSNC)
Tue 02:26:55 PM 39.2039 -74.2776 212° Southwest 412 474 36,000  Level FlightAware ADS-B
Tue 02:27:06 PM 39.1876 -74.2906 212° Southwest 412 474 36,000  Level FlightAware ADS-B
Tue 02:27:39 PM 39.1301 -74.3366 212° Southwest 404 465 36,000  Level FlightAware ADS-B (KWWD)
Tue 02:28:12 PM 39.0774 -74.3786 212° Southwest 405 466 36,000  Level FlightAware ADS-B (KWWD)
Tue 02:28:43 PM 39.0308 -74.4157 212° Southwest 412 474 36,000  Level FlightAware ADS-B
Tue 02:29:13 PM 38.9848 -74.4523 212° Southwest 412 474 36,000  Level FlightAware ADS-B
Tue 02:29:43 PM 38.9309 -74.4951 212° Southwest 413 475 36,000  Level FlightAware ADS-B
Tue 02:30:23 PM 38.8705 -74.5430 212° Southwest 414 476 36,000  Level FlightAware ADS-B
Tue 02:31:00 PM 38.8071 -74.5929 212° Southwest 414 476 36,000  Level FlightAware ADS-B
Tue 02:31:30 PM 38.7568 -74.6325 212° Southwest 402 463 36,000  Level FlightAware ADS-B (KWWD)
Tue 02:32:07 PM 38.6974 -74.6793 212° Southwest 399 459 36,000  Level FlightAware ADS-B (KWWD)
Tue 02:32:37 PM 38.6522 -74.7150 212° Southwest 404 465 36,000  Level FlightAware ADS-B
Tue 02:33:09 PM 38.6090 -74.7490 212° Southwest 402 463 36,000  Level FlightAware ADS-B
Tue 02:33:39 PM 38.5520 -74.7937 212° Southwest 401 461 36,000  Level FlightAware ADS-B
Tue 02:34:13 PM 38.4972 -74.8365 211° Southwest 399 459 36,000  Level FlightAware ADS-B (KWWD)
Tue 02:34:44 PM 38.4502 -74.8731 211° Southwest 399 459 36,000  Level FlightAware ADS-B
Tue 02:35:28 PM 38.3808 -74.9271 211° Southwest 401 461 36,000  Level FlightAware ADS-B
Tue 02:36:10 PM 38.3141 -74.9789 211° Southwest 402 463 36,000  Level FlightAware ADS-B
Tue 02:36:40 PM 38.2996 -74.9902 211° Southwest 403 464 36,000  Level FlightAware ADS-B
Tue 02:37:19 PM 38.2226 -75.0499 211° Southwest 403 464 36,000  Level FlightAware ADS-B
Tue 02:37:50 PM 38.1554 -75.1019 211° Southwest 405 466 36,000  Level FlightAware ADS-B
Tue 02:38:08 PM 38.1319 -75.1201 211° Southwest 405 466 36,000  Level FlightAware ADS-B
Tue 02:38:40 PM 38.0751 -75.1640 211° Southwest 408 470 36,000  Level FlightAware ADS-B
Tue 02:38:50 PM 38.0568 -75.1780 211° Southwest 401 461 36,000  Level FlightAware ADS-B (KWWD)
Tue 02:39:00 PM 38.0410 -75.1902 211° Southwest 402 463 36,000  Level FlightAware ADS-B (KWWD)
Tue 02:39:09 PM 38.0304 -75.1984 211° Southwest 408 470 36,000  Level FlightAware ADS-B
Tue 02:39:30 PM 37.9925 -75.2276 211° Southwest 403 464 36,000  Level FlightAware ADS-B (KWWD)
Tue 02:40:10 PM 37.9276 -75.2773 211° Southwest 413 475 36,000  Level FlightAware ADS-B (KWWD)
Tue 02:40:43 PM 37.8724 -75.3196 211° Southwest 414 476 36,000  Level FlightAware ADS-B (KWWD)
Tue 02:41:13 PM 37.8244 -75.3564 211° Southwest 416 479 36,000  Level FlightAware ADS-B (KWWD)
Tue 02:41:43 PM 37.7745 -75.3944 211° Southwest 417 480 36,000  Level FlightAware ADS-B (KWWD)
Tue 02:42:13 PM 37.7253 -75.4320 211° Southwest 416 479 36,000  Level FlightAware ADS-B (KWWD)
Tue 02:42:45 PM 37.6740 -75.4709 211° Southwest 416 479 36,000  Level FlightAware ADS-B
Tue 02:43:19 PM 37.6181 -75.5134 211° Southwest 416 479 36,000  Level FlightAware ADS-B
Tue 02:43:53 PM 37.5605 -75.5572 211° Southwest 413 475 36,000  Level FlightAware ADS-B (KWWD)
Tue 02:44:28 PM 37.5032 -75.6006 211° Southwest 423 487 36,000  Level FlightAware ADS-B
Tue 02:45:00 PM 37.4477 -75.6426 211° Southwest 418 481 36,000  Level FlightAware ADS-B (KWWD)
Tue 02:45:30 PM 37.3974 -75.6806 211° Southwest 419 482 36,000  Level FlightAware ADS-B (KWWD)
Tue 02:46:04 PM 37.3397 -75.7241 211° Southwest 430 495 36,000  Level FlightAware ADS-B (KWWD)
Tue 02:46:40 PM 37.2772 -75.7711 211° Southwest 432 497 36,000  Level FlightAware ADS-B (KWWD)
Tue 02:47:14 PM 37.2222 -75.8123 211° Southwest 433 498 36,000  Level FlightAware ADS-B (KWWD)
Tue 02:47:50 PM 37.1579 -75.8605 211° Southwest 431 496 36,000  Level FlightAware ADS-B (KWWD)
Tue 02:48:29 PM 37.0914 -75.9101 211° Southwest 430 495 36,000  Level FlightAware ADS-B (KWWD)
Tue 02:49:03 PM 37.0347 -75.9525 211° Southwest 430 495 36,000  Level FlightAware ADS-B (KNTU)
Tue 02:49:38 PM 36.9769 -75.9955 211° Southwest 426 490 36,000  Level FlightAware ADS-B (KNTU)
Tue 02:50:14 PM 36.9124 -76.0435 211° Southwest 418 481 36,000  Level FlightAware ADS-B (KWWD)
Tue 02:51:14 PM 36.8412 -76.0962 211° Southwest 418 481 36,000  Level FlightAware ADS-B (KNTU)
Tue 02:52:04 PM 36.7303 -76.1783 211° Southwest 417 480 36,000  Level FlightAware ADS-B (KNTU)
Tue 02:52:40 PM 36.6709 -76.2222 211° Southwest 417 480 36,000  Level FlightAware ADS-B (KNTU)
Tue 02:53:24 PM 36.6065 -76.2697 211° Southwest 418 481 36,000  Level FlightAware ADS-B (KNTU)
Tue 02:54:03 PM 36.5351 -76.3221 211° Southwest 419 482 36,000  Level FlightAware ADS-B (KNTU)
Tue 02:54:44 PM 36.5015 -76.3468 211° Southwest 423 487 36,000  Level FlightAware ADS-B (KNTU)
Tue 02:55:24 PM 36.3990 -76.4218 210° Southwest 422 486 36,000  Level FlightAware ADS-B (KNTU)
Tue 02:56:02 PM 36.3336 -76.4694 210° Southwest 422 486 36,000  Level FlightAware ADS-B (KNTU)
Tue 02:56:33 PM 36.2813 -76.5076 210° Southwest 422 486 36,000  Level FlightAware ADS-B (KNTU)
Tue 02:57:21 PM 36.2813 -76.5076 210° Southwest 421 484 36,000  Level FlightAware ADS-B (KNTU)
Tue 02:58:02 PM 36.1323 -76.6159 210° Southwest 415 478 36,000  Level FlightAware ADS-B (KNTU)
Tue 02:59:09 PM 36.0364 -76.6811 210° Southwest 427 491 36,000  Level Washington Center
Tue 03:00:09 PM 35.9356 -76.7542 210° Southwest 422 486 36,000  Level Washington Center
Tue 03:01:10 PM 35.8408 -76.8269 212° Southwest 417 480 36,000  Level Washington Center
Tue 03:02:08 PM 35.7400 -76.8972 210° Southwest 417 480 36,000  Level Washington Center
Tue 03:03:09 PM 35.6392 -76.9669 209° Southwest 417 480 36,000  Level Washington Center
Tue 03:04:09 PM 35.5444 -77.0394 212° Southwest 412 474 36,000  Level Washington Center
Tue 03:05:10 PM 35.4453 -77.1092 210° Southwest 412 474 36,000  Level Washington Center
Tue 03:06:10 PM 35.3422 -77.1811 210° Southwest 412 474 36,000  Level Washington Center
Tue 03:07:07 PM 35.2433 -77.2503 210° Southwest 417 480 36,000  Level Washington Center
Tue 03:08:08 PM 35.1419 -77.3217 210° Southwest 422 486 36,000  Level Washington Center
Tue 03:09:08 PM 35.0431 -77.3906 210° Southwest 422 486 36,000  Level Washington Center
Tue 03:10:09 PM 34.9397 -77.4644 210° Southwest 427 491 36,000  Level Washington Center
Tue 03:11:09 PM 34.8361 -77.5381 210° Southwest 427 491 36,000  Level Washington Center
Tue 03:12:10 PM 34.7264 -77.6161 210° Southwest 427 491 36,000  Level Washington Center
Tue 03:13:07 PM 34.6292 -77.6869 211° Southwest 427 491 36,000  Level Washington Center
Tue 03:14:08 PM 34.5278 -77.7550 209° Southwest 422 486 36,000  Level Washington Center
Tue 03:15:08 PM 34.4103 -77.7922 195° South 422 486 36,000  Level Washington Center
Tue 03:16:10 PM 34.2928 -77.8242 193° South 427 491 36,000  Level Washington Center
Tue 03:17:59 PM 34.0814 -77.8858 194° South 454 522 36,000  Level Jacksonville Center
Tue 03:18:59 PM 33.9594 -77.9178 192° South 454 522 36,000  Level Jacksonville Center
Tue 03:19:59 PM 33.8381 -77.9572 195° South 449 517 36,000  Level Jacksonville Center
Tue 03:20:59 PM 33.7183 -77.9939 194° South 449 517 36,000  Level Jacksonville Center
Tue 03:21:59 PM 33.5864 -78.0336 194° South 449 517 36,000  Level Jacksonville Center
Tue 03:22:59 PM 33.4644 -78.0678 193° South 449 517 36,000  Level Jacksonville Center
Tue 03:23:59 PM 33.3447 -78.1014 193° South 449 517 36,000  Level Jacksonville Center
Tue 03:24:59 PM 33.2231 -78.1378 194° South 449 517 36,000  Level Jacksonville Center
Tue 03:25:59 PM 33.1014 -78.1742 194° South 449 517 36,000  Level Jacksonville Center
Tue 03:26:59 PM 32.9836 -78.2075 193° South 449 517 36,000  Level Jacksonville Center
Tue 03:27:59 PM 32.8639 -78.2433 194° South 449 517 36,000  Level Jacksonville Center
Tue 03:28:59 PM 32.7461 -78.2792 194° South 449 517 36,000  Level Jacksonville Center
Tue 03:29:59 PM 32.6283 -78.3097 192° South 449 517 36,000  Level Jacksonville Center
Tue 03:30:59 PM 32.5106 -78.3428 193° South 444 511 36,000  Level Jacksonville Center
Tue 03:31:59 PM 32.3928 -78.3758 193° South 444 511 36,000  Level Jacksonville Center
Tue 03:32:59 PM 32.2897 -78.4103 196° South 438 504 36,000  Level Jacksonville Center
Tue 03:33:59 PM 32.1700 -78.4456 194° South 438 504 36,000  Level Jacksonville Center
Tue 03:34:59 PM 32.0542 -78.4783 193° South 432 497 36,000  Level Jacksonville Center
Tue 03:35:59 PM 31.9364 -78.5108 193° South 432 497 36,000  Level Jacksonville Center
Tue 03:36:59 PM 31.8164 -78.5433 193° South 432 497 36,000  Level Jacksonville Center
Tue 03:37:59 PM 31.6964 -78.5783 194° South 437 503 36,000  Level Jacksonville Center
Tue 03:38:59 PM 31.5786 -78.6131 194° South 437 503 36,000  Level Jacksonville Center
Tue 03:39:59 PM 31.4586 -78.6428 192° South 442 509 36,000  Level Jacksonville Center
Tue 03:40:59 PM 31.3408 -78.6775 194° South 442 509 36,000  Level Jacksonville Center
Tue 03:41:59 PM 31.2250 -78.7094 193° South 442 509 36,000  Level Jacksonville Center
Tue 03:42:59 PM 31.1050 -78.7439 194° South 442 509 36,000  Level Jacksonville Center
Tue 03:43:59 PM 30.9850 -78.7781 194° South 449 517 36,000  Level Jacksonville Center
Tue 03:44:59 PM 30.8669 -78.8100 193° South 444 511 36,000  Level Jacksonville Center
Tue 03:45:59 PM 30.7450 -78.8442 194° South 444 511 36,000  Level Jacksonville Center
Tue 03:46:59 PM 30.6292 -78.8756 193° South 450 518 36,000  Level Jacksonville Center
Tue 03:48:14 PM 30.4697 -78.9225 194° South 415 478 36,000  Level Miami Center
Tue 03:49:14 PM 30.3564 -78.9636 197° South 422 486 36,000  Level Miami Center
Tue 03:50:14 PM 30.2392 -79.0094 199° South 430 495 36,000  Level Miami Center
Tue 03:55:36 PM 29.6164 -79.2538 199° South 440 506 36,000  Level FlightAware ADS-B
Tue 03:56:32 PM 29.5103 -79.2957 199° South 440 506 36,000  Level FlightAware ADS-B
Tue 04:01:24 PM 28.9468 -79.5158 199° South 440 506 36,000  Level FlightAware ADS-B
Tue 04:01:59 PM 28.8744 -79.5439 199° South 440 506 36,000  Level FlightAware ADS-B
Tue 04:03:01 PM 28.7558 -79.5899 199° South 438 504 36,000  Level FlightAware ADS-B
Tue 04:03:38 PM 28.6840 -79.6177 199° South 439 505 36,000  Level FlightAware ADS-B
Tue 04:04:40 PM 28.5650 -79.6636 199° South 440 506 36,000  Level FlightAware ADS-B
Tue 04:05:30 PM 28.4707 -79.6998 199° South 440 506 36,000  Level FlightAware ADS-B
Tue 04:06:01 PM 28.4107 -79.7230 199° South 439 505 36,000  Level FlightAware ADS-B
Tue 04:06:31 PM 28.3519 -79.7455 199° South 439 505 36,000  Level FlightAware ADS-B
Tue 04:07:10 PM 28.2750 -79.7750 199° South 441 507 36,000  Level FlightAware ADS-B
Tue 04:07:51 PM 28.1969 -79.8049 199° South 441 507 36,000  Level FlightAware ADS-B
Tue 04:08:22 PM 28.1376 -79.8276 199° South 439 505 36,000  Level FlightAware ADS-B
Tue 04:08:59 PM 28.0644 -79.8555 199° South 438 504 36,000  Level FlightAware ADS-B
Tue 04:09:52 PM 27.9744 -79.8898 199° South 440 506 36,000  Level FlightAware ADS-B
Tue 04:10:22 PM 27.9056 -79.9160 199° South 440 506 36,000  Level FlightAware ADS-B
Tue 04:11:02 PM 27.8298 -79.9448 199° South 440 506 36,000  Level FlightAware ADS-B
Tue 04:11:32 PM 27.7697 -79.9677 199° South 440 506 36,000  Level FlightAware ADS-B
Tue 04:12:02 PM 27.7143 -79.9887 199° South 441 507 36,000  Level FlightAware ADS-B
Tue 04:12:32 PM 27.6540 -80.0115 199° South 440 506 36,000  Level FlightAware ADS-B
Tue 04:13:02 PM 27.5971 -80.0330 199° South 440 506 36,000  Level FlightAware ADS-B
Tue 04:13:41 PM 27.5210 -80.0618 199° South 439 505 36,000  Level FlightAware ADS-B
Tue 04:14:12 PM 27.4625 -80.0839 199° South 440 506 36,000  Level FlightAware ADS-B
Tue 04:14:42 PM 27.4027 -80.1064 198° South 440 506 36,000  Level FlightAware ADS-B
Tue 04:15:15 PM 27.3399 -80.1300 198° South 442 509 36,000  Level FlightAware ADS-B
Tue 04:15:47 PM 27.2868 -80.1500 198° South 443 510 36,000  Level FlightAware ADS-B
Tue 04:16:19 PM 27.2138 -80.1774 199° South 443 510 36,000  Level FlightAware ADS-B
Tue 04:16:57 PM 27.1427 -80.2041 198° South 444 511 36,000  Level FlightAware ADS-B
Tue 04:17:27 PM 27.0828 -80.2266 198° South 443 510 36,000  Level FlightAware ADS-B
Tue 04:18:24 PM 26.9720 -80.2680 198° South 442 509 36,000  Level FlightAware ADS-B
Tue 04:19:58 PM 26.7912 -80.3355 198° South 440 506 36,000  Level FlightAware ADS-B
Tue 04:20:31 PM 26.7326 -80.3573 198° South 441 507 36,000  Level FlightAware ADS-B
Tue 04:24:17 PM 26.2868 -80.5224 198° South 443 510 36,000  Level FlightAware ADS-B
Tue 04:25:14 PM 26.1944 -80.5567 198° South 448 516 36,000  Level Miami Center
Tue 04:26:14 PM 26.0783 -80.5992 198° South 443 510 36,000  Level Miami Center
Tue 04:27:14 PM 25.9603 -80.6442 199° South 448 516 36,000  Level Miami Center
Tue 04:28:14 PM 25.8444 -80.6889 199° South 448 516 36,000  Level Miami Center
Tue 04:29:14 PM 25.7281 -80.7428 203° Southwest 448 516 36,000  Level Miami Center
Tue 04:30:14 PM 25.6358 -80.8275 220° Southwest 441 507 36,000  Level Miami Center
Tue 04:31:14 PM 25.5333 -80.9183 219° Southwest 441 507 36,000  Level Miami Center
Tue 04:32:14 PM 25.4389 -81.0028 219° Southwest 441 507 36,000  Level Miami Center
Tue 04:33:14 PM 25.3447 -81.0869 219° Southwest 441 507 36,000  Level Miami Center
Tue 04:34:14 PM 25.2525 -81.1708 219° Southwest 441 507 36,000  Level Miami Center
Tue 04:35:14 PM 25.1603 -81.2503 218° Southwest 436 502 36,000  Level Miami Center
Tue 04:36:14 PM 25.0658 -81.3339 219° Southwest 436 502 36,000  Level Miami Center
Tue 04:37:14 PM 24.9694 -81.4175 218° Southwest 436 502 36,000 -100 Level Miami Center
Tue 04:38:14 PM 24.8792 -81.4989 219° Southwest 436 502 35,800 -600 Descending Miami Center
Tue 04:39:14 PM 24.8039 -81.5647 218° Southwest 436 502 34,800 -1,150 Descending Miami Center
Tue 04:40:14 PM 24.7069 -81.6547 220° Southwest 436 502 33,500 -1,300 Descending Miami Center
Tue 04:41:14 PM 24.5956 -81.7464 217° Southwest 447 514 32,200 -1,250 Descending Miami Center
Tue 04:42:14 PM 24.5089 -81.8389 224° Southwest 441 507 31,000 -1,200 Descending Miami Center
Tue 04:43:14 PM 24.4411 -81.9294 231° Southwest 423 487 29,800 -1,200 Descending Miami Center
Tue 04:44:14 PM 24.3708 -82.0269 232° Southwest 410 472 28,600 -1,200 Descending Miami Center
Tue 04:45:14 PM 24.3008 -82.1175 230° Southwest 405 466 27,400 -1,200 Descending Miami Center
Tue 04:46:14 PM 24.2331 -82.2033 229° Southwest 394 453 26,200 -1,200 Descending Miami Center
Tue 04:47:14 PM 24.1694 -82.2939 232° Southwest 382 440 25,000 -1,200 Descending Miami Center
Tue 04:48:14 PM 24.1017 -82.3775 228° Southwest 382 440 23,800 -1,200 Descending Miami Center
Tue 04:49:14 PM 24.0275 -82.4606 226° Southwest 382 440 22,600 -2,000 Descending Miami Center
Tue 04:50:14 PM 23.9294 -82.5131 206° Southwest 382 440 19,800 -2,650 Descending Miami Center
Tue 04:51:14 PM 23.8178 -82.5375 191° South 393 452 17,300 -2,500 Descending Miami Center
Tue 04:53:00 PM 23.6245 -82.4691 175° South  Level FlightAware Approximate
Tue 05:00:00 PM 22.9891 -82.4091 180° South  Level Estimated
Tue 05:01:00 PM 22.9891 -82.4091 180° South  Level Estimated
Tue 05:02:00 PM 22.9891 -82.4091 180° South  Level Estimated
Tue 05:03:00 PM 22.9891 -82.4091 180° South  Level Estimated
Tue 05:04:00 PM 22.9891 -82.4091 180° South  Level Estimated
Tue 05:05:00 PM 22.9891 -82.4091 180° South  Level Estimated
Tue 05:06:00 PM 22.9891 -82.4091 180° South  Level Estimated
Tue 05:07:00 PM 22.9891 -82.4091 180° South  Level Estimated
Tue 05:08:00 PM 22.9891 -82.4091 180° South  Level Estimated
Tue 05:09:00 PM 22.9891 -82.4091 180° South  Level Estimated
Tue 05:10:00 PM 22.9891 -82.4091 180° South  Level Estimated
Tue 05:11:00 PM 22.9891 -82.4091 180° South  Level Estimated
Tue 05:12:00 PM 22.9891 -82.4091 180° South  Level Estimated
Tue 05:13:00 PM 22.9891 -82.4091 180° South  Level Estimated
Tue 05:14:00 PM 22.9891 -82.4091 180° South  Level Estimated
Tue 05:15:00 PM 22.9891 -82.4091 180° South  Level Estimated
Tue 05:16:00 PM 22.9891 -82.4091 180° South  Level Estimated
Tue 05:17:00 PM 22.9891 -82.4091 180° South  Level Estimated
Tue 05:18:00 PM 22.9891 -82.4091 180° South  Level Estimated
Tue 05:19:00 PM 22.9891 -82.4091 180° South  Level Estimated
Tue 05:20:00 PM 22.9891 -82.4091 180° South  Level Estimated

Login

Don't have an account? Register now (free) for customized features, flight alerts, and more!